sensor_id;sensor_type;location;lat;lon;timestamp;pressure;altitude;pressure_sealevel;temperature;humidity
6134;BME280;3098;42.678;23.364;2023-01-05T00:01:44;95750.53;;;6.40;100.00
6134;BME280;3098;42.678;23.364;2023-01-05T00:04:12;95711.22;;;6.23;100.00
6134;BME280;3098;42.678;23.364;2023-01-05T00:06:42;95755.56;;;6.57;100.00
6134;BME280;3098;42.678;23.364;2023-01-05T00:09:13;95752.41;;;6.50;100.00
6134;BME280;3098;42.678;23.364;2023-01-05T00:11:41;95777.44;;;6.52;100.00
6134;BME280;3098;42.678;23.364;2023-01-05T00:14:29;95718.84;;;6.20;100.00
6134;BME280;3098;42.678;23.364;2023-01-05T00:17:16;95639.16;;;5.67;100.00
6134;BME280;3098;42.678;23.364;2023-01-05T00:20:03;95750.00;;;6.38;100.00
6134;BME280;3098;42.678;23.364;2023-01-05T00:22:50;95747.09;;;6.40;100.00
6134;BME280;3098;42.678;23.364;2023-01-05T00:25:19;95548.25;;;5.25;100.00
6134;BME280;3098;42.678;23.364;2023-01-05T00:27:48;95746.81;;;6.36;100.00
6134;BME280;3098;42.678;23.364;2023-01-05T00:30:21;95700.97;;;6.27;100.00
6134;BME280;3098;42.678;23.364;2023-01-05T00:32:49;95739.97;;;6.45;100.00
6134;BME280;3098;42.678;23.364;2023-01-05T00:35:16;95732.06;;;6.40;100.00
6134;BME280;3098;42.678;23.364;2023-01-05T00:37:44;95729.72;;;6.54;100.00
6134;BME280;3098;42.678;23.364;2023-01-05T00:40:13;95599.69;;;5.72;100.00
6134;BME280;3098;42.678;23.364;2023-01-05T00:42:40;95725.72;;;6.36;100.00
6134;BME280;3098;42.678;23.364;2023-01-05T00:45:10;95727.09;;;6.44;100.00
6134;BME280;3098;42.678;23.364;2023-01-05T00:47:40;95693.81;;;6.22;100.00
6134;BME280;3098;42.678;23.364;2023-01-05T00:50:09;95719.94;;;6.39;100.00
6134;BME280;3098;42.678;23.364;2023-01-05T00:52:37;95718.91;;;6.45;100.00
6134;BME280;3098;42.678;23.364;2023-01-05T00:55:07;95700.69;;;6.18;100.00
6134;BME280;3098;42.678;23.364;2023-01-05T00:57:34;95676.44;;;6.11;100.00
6134;BME280;3098;42.678;23.364;2023-01-05T01:00:06;95726.56;;;6.52;100.00
6134;BME280;3098;42.678;23.364;2023-01-05T01:02:33;95599.72;;;5.77;100.00
6134;BME280;3098;42.678;23.364;2023-01-05T01:05:04;95699.66;;;6.45;100.00
6134;BME280;3098;42.678;23.364;2023-01-05T01:07:31;95696.25;;;6.49;100.00
6134;BME280;3098;42.678;23.364;2023-01-05T01:10:05;95729.47;;;6.55;100.00
6134;BME280;3098;42.678;23.364;2023-01-05T01:12:33;95548.31;;;5.45;100.00
6134;BME280;3098;42.678;23.364;2023-01-05T01:15:00;95563.31;;;5.39;100.00
6134;BME280;3098;42.678;23.364;2023-01-05T01:17:30;95673.03;;;6.21;100.00
6134;BME280;3098;42.678;23.364;2023-01-05T01:19:57;95720.78;;;6.55;100.00
6134;BME280;3098;42.678;23.364;2023-01-05T01:22:26;95719.69;;;6.56;100.00
6134;BME280;3098;42.678;23.364;2023-01-05T01:24:54;95713.91;;;6.59;100.00
6134;BME280;3098;42.678;23.364;2023-01-05T01:27:21;95667.53;;;6.38;100.00
6134;BME280;3098;42.678;23.364;2023-01-05T01:29:49;95601.03;;;5.80;100.00
6134;BME280;3098;42.678;23.364;2023-01-05T01:32:17;95655.38;;;6.31;100.00
6134;BME280;3098;42.678;23.364;2023-01-05T01:34:45;95655.38;;;6.21;100.00
6134;BME280;3098;42.678;23.364;2023-01-05T01:37:13;95655.91;;;6.18;100.00
6134;BME280;3098;42.678;23.364;2023-01-05T01:39:44;95664.59;;;6.39;100.00
6134;BME280;3098;42.678;23.364;2023-01-05T01:42:13;95688.59;;;6.43;100.00
6134;BME280;3098;42.678;23.364;2023-01-05T01:44:52;95610.31;;;6.08;100.00
6134;BME280;3098;42.678;23.364;2023-01-05T01:47:36;95671.72;;;6.59;100.00
6134;BME280;3098;42.678;23.364;2023-01-05T01:50:09;95639.81;;;6.25;100.00
6134;BME280;3098;42.678;23.364;2023-01-05T01:52:39;95668.06;;;6.55;100.00
6134;BME280;3098;42.678;23.364;2023-01-05T01:55:09;95663.81;;;6.38;100.00
6134;BME280;3098;42.678;23.364;2023-01-05T01:57:37;95609.53;;;6.12;100.00
6134;BME280;3098;42.678;23.364;2023-01-05T02:00:08;95617.44;;;6.07;100.00
6134;BME280;3098;42.678;23.364;2023-01-05T02:02:39;95651.19;;;6.41;100.00
6134;BME280;3098;42.678;23.364;2023-01-05T02:05:10;95644.31;;;6.40;100.00
6134;BME280;3098;42.678;23.364;2023-01-05T02:07:43;95620.59;;;6.19;100.00
6134;BME280;3098;42.678;23.364;2023-01-05T02:10:13;95418.22;;;4.75;100.00
6134;BME280;3098;42.678;23.364;2023-01-05T02:12:52;95613.94;;;5.82;100.00
6134;BME280;3098;42.678;23.364;2023-01-05T02:15:33;95523.78;;;5.24;100.00
6134;BME280;3098;42.678;23.364;2023-01-05T02:18:13;95633.75;;;6.04;100.00
6134;BME280;3098;42.678;23.364;2023-01-05T02:20:59;95627.16;;;5.97;100.00
6134;BME280;3098;42.678;23.364;2023-01-05T02:27:00;95634.22;;;5.81;100.00
6134;BME280;3098;42.678;23.364;2023-01-05T02:29:58;95631.09;;;5.94;100.00
6134;BME280;3098;42.678;23.364;2023-01-05T02:32:33;95539.34;;;5.31;100.00
6134;BME280;3098;42.678;23.364;2023-01-05T02:35:09;95560.97;;;5.58;100.00
6134;BME280;3098;42.678;23.364;2023-01-05T02:37:43;95630.34;;;6.14;100.00
6134;BME280;3098;42.678;23.364;2023-01-05T02:40:14;95552.00;;;5.49;100.00
6134;BME280;3098;42.678;23.364;2023-01-05T02:42:46;95632.94;;;5.94;100.00
6134;BME280;3098;42.678;23.364;2023-01-05T02:45:16;95633.22;;;5.92;100.00
6134;BME280;3098;42.678;23.364;2023-01-05T02:47:45;95616.09;;;5.95;100.00
6134;BME280;3098;42.678;23.364;2023-01-05T02:50:16;95574.97;;;5.84;100.00
6134;BME280;3098;42.678;23.364;2023-01-05T02:52:52;95625.88;;;6.19;100.00
6134;BME280;3098;42.678;23.364;2023-01-05T02:55:28;95563.94;;;5.97;100.00
6134;BME280;3098;42.678;23.364;2023-01-05T02:58:02;95606.13;;;6.32;100.00
6134;BME280;3098;42.678;23.364;2023-01-05T03:00:33;95430.44;;;5.27;100.00
6134;BME280;3098;42.678;23.364;2023-01-05T03:03:09;95600.84;;;6.22;100.00
6134;BME280;3098;42.678;23.364;2023-01-05T03:05:44;95571.06;;;5.86;100.00
6134;BME280;3098;42.678;23.364;2023-01-05T03:08:16;95596.34;;;5.97;100.00
6134;BME280;3098;42.678;23.364;2023-01-05T03:10:57;95597.94;;;6.13;100.00
6134;BME280;3098;42.678;23.364;2023-01-05T03:13:46;95568.94;;;5.93;100.00
6134;BME280;3098;42.678;23.364;2023-01-05T03:16:20;95550.25;;;6.05;100.00
6134;BME280;3098;42.678;23.364;2023-01-05T03:18:52;95481.00;;;5.69;100.00
6134;BME280;3098;42.678;23.364;2023-01-05T03:21:38;95544.47;;;6.18;100.00
6134;BME280;3098;42.678;23.364;2023-01-05T03:24:26;95523.69;;;6.01;100.00
6134;BME280;3098;42.678;23.364;2023-01-05T03:27:11;95518.94;;;6.03;100.00
6134;BME280;3098;42.678;23.364;2023-01-05T03:29:56;95449.63;;;5.42;100.00
6134;BME280;3098;42.678;23.364;2023-01-05T03:32:46;95467.84;;;5.64;100.00
6134;BME280;3098;42.678;23.364;2023-01-05T03:35:34;95529.47;;;5.98;100.00
6134;BME280;3098;42.678;23.364;2023-01-05T03:38:11;95520.25;;;6.01;100.00
6134;BME280;3098;42.678;23.364;2023-01-05T03:40:40;95435.19;;;5.45;100.00
6134;BME280;3098;42.678;23.364;2023-01-05T03:43:10;95561.63;;;6.15;100.00
6134;BME280;3098;42.678;23.364;2023-01-05T03:45:39;95550.53;;;6.13;100.00
6134;BME280;3098;42.678;23.364;2023-01-05T03:48:07;95528.44;;;6.04;100.00
6134;BME280;3098;42.678;23.364;2023-01-05T03:50:36;95552.63;;;6.11;100.00
6134;BME280;3098;42.678;23.364;2023-01-05T03:53:04;95515.78;;;5.86;100.00
6134;BME280;3098;42.678;23.364;2023-01-05T03:55:32;95532.91;;;6.04;100.00
6134;BME280;3098;42.678;23.364;2023-01-05T03:58:00;95554.22;;;6.27;100.00
6134;BME280;3098;42.678;23.364;2023-01-05T04:00:28;95520.25;;;6.06;100.00
6134;BME280;3098;42.678;23.364;2023-01-05T04:02:55;95472.84;;;5.86;100.00
6134;BME280;3098;42.678;23.364;2023-01-05T04:05:23;95552.09;;;6.40;100.00
6134;BME280;3098;42.678;23.364;2023-01-05T04:07:52;95547.63;;;6.20;100.00
6134;BME280;3098;42.678;23.364;2023-01-05T04:10:19;95541.56;;;6.19;100.00
6134;BME280;3098;42.678;23.364;2023-01-05T04:12:49;95506.28;;;5.85;100.00
6134;BME280;3098;42.678;23.364;2023-01-05T04:15:16;95535.78;;;6.02;100.00
6134;BME280;3098;42.678;23.364;2023-01-05T04:17:44;95499.41;;;5.79;100.00
6134;BME280;3098;42.678;23.364;2023-01-05T04:20:12;95540.53;;;6.00;100.00
6134;BME280;3098;42.678;23.364;2023-01-05T04:22:40;95531.84;;;6.00;100.00
6134;BME280;3098;42.678;23.364;2023-01-05T04:25:11;95525.78;;;5.89;100.00
6134;BME280;3098;42.678;23.364;2023-01-05T04:27:38;95506.25;;;5.70;100.00
6134;BME280;3098;42.678;23.364;2023-01-05T04:30:09;95531.06;;;6.04;100.00
6134;BME280;3098;42.678;23.364;2023-01-05T04:32:37;95525.25;;;5.92;100.00
6134;BME280;3098;42.678;23.364;2023-01-05T04:35:05;95467.78;;;5.34;100.00
6134;BME280;3098;42.678;23.364;2023-01-05T04:37:32;95493.06;;;5.45;100.00
6134;BME280;3098;42.678;23.364;2023-01-05T04:39:59;95530.75;;;5.75;100.00
6134;BME280;3098;42.678;23.364;2023-01-05T04:42:28;95519.41;;;5.60;100.00
6134;BME280;3098;42.678;23.364;2023-01-05T04:44:57;95479.38;;;5.28;100.00
6134;BME280;3098;42.678;23.364;2023-01-05T04:47:25;95532.56;;;5.65;100.00
6134;BME280;3098;42.678;23.364;2023-01-05T04:49:53;95472.75;;;5.20;100.00
6134;BME280;3098;42.678;23.364;2023-01-05T04:52:19;95527.00;;;5.56;100.00
6134;BME280;3098;42.678;23.364;2023-01-05T04:54:48;95541.25;;;5.60;100.00
6134;BME280;3098;42.678;23.364;2023-01-05T04:57:17;95544.13;;;5.54;100.00
6134;BME280;3098;42.678;23.364;2023-01-05T04:59:46;95226.09;;;3.49;100.00
6134;BME280;3098;42.678;23.364;2023-01-05T05:02:13;95481.16;;;5.07;100.00
6134;BME280;3098;42.678;23.364;2023-01-05T05:04:40;95527.25;;;5.35;100.00
6134;BME280;3098;42.678;23.364;2023-01-05T05:07:07;95549.94;;;5.56;100.00
6134;BME280;3098;42.678;23.364;2023-01-05T05:09:35;95518.56;;;5.34;100.00
6134;BME280;3098;42.678;23.364;2023-01-05T05:12:03;95396.09;;;4.56;100.00
6134;BME280;3098;42.678;23.364;2023-01-05T05:14:31;95463.25;;;4.99;100.00
6134;BME280;3098;42.678;23.364;2023-01-05T05:17:00;95521.19;;;5.34;100.00
6134;BME280;3098;42.678;23.364;2023-01-05T05:19:28;95511.97;;;5.27;100.00
6134;BME280;3098;42.678;23.364;2023-01-05T05:21:55;95569.16;;;5.66;100.00
6134;BME280;3098;42.678;23.364;2023-01-05T05:24:23;95563.34;;;5.59;100.00
6134;BME280;3098;42.678;23.364;2023-01-05T05:26:51;95485.59;;;5.06;100.00
6134;BME280;3098;42.678;23.364;2023-01-05T05:29:18;95521.16;;;5.24;100.00
6134;BME280;3098;42.678;23.364;2023-01-05T05:31:46;95533.81;;;5.27;100.00
6134;BME280;3098;42.678;23.364;2023-01-05T05:34:16;95517.22;;;5.16;100.00
6134;BME280;3098;42.678;23.364;2023-01-05T05:36:44;95548.03;;;5.36;100.00
6134;BME280;3098;42.678;23.364;2023-01-05T05:39:12;95492.19;;;5.04;100.00
6134;BME280;3098;42.678;23.364;2023-01-05T05:41:39;95506.91;;;5.05;100.00
6134;BME280;3098;42.678;23.364;2023-01-05T05:44:07;95526.66;;;5.12;100.00
6134;BME280;3098;42.678;23.364;2023-01-05T05:46:35;95529.56;;;5.21;100.00
6134;BME280;3098;42.678;23.364;2023-01-05T05:49:02;95524.81;;;5.08;100.00
6134;BME280;3098;42.678;23.364;2023-01-05T05:51:31;95522.69;;;5.05;100.00
6134;BME280;3098;42.678;23.364;2023-01-05T05:53:58;95488.94;;;4.82;100.00
6134;BME280;3098;42.678;23.364;2023-01-05T05:56:26;95526.06;;;5.00;100.00
6134;BME280;3098;42.678;23.364;2023-01-05T05:58:53;95525.03;;;4.96;100.00
6134;BME280;3098;42.678;23.364;2023-01-05T06:01:21;95520.00;;;4.95;100.00
6134;BME280;3098;42.678;23.364;2023-01-05T06:03:48;95518.41;;;4.94;100.00
6134;BME280;3098;42.678;23.364;2023-01-05T06:06:16;95507.06;;;4.83;100.00
6134;BME280;3098;42.678;23.364;2023-01-05T06:08:47;95319.59;;;3.75;100.00
6134;BME280;3098;42.678;23.364;2023-01-05T06:11:15;95378.03;;;4.13;100.00
6134;BME280;3098;42.678;23.364;2023-01-05T06:13:44;95349.63;;;3.94;100.00
6134;BME280;3098;42.678;23.364;2023-01-05T06:16:13;95413.97;;;4.59;100.00
6134;BME280;3098;42.678;23.364;2023-01-05T06:18:43;95448.75;;;4.86;100.00
6134;BME280;3098;42.678;23.364;2023-01-05T06:21:13;95511.72;;;5.33;100.00
6134;BME280;3098;42.678;23.364;2023-01-05T06:23:41;95347.94;;;4.35;100.00
6134;BME280;3098;42.678;23.364;2023-01-05T06:26:10;95442.44;;;4.92;100.00
6134;BME280;3098;42.678;23.364;2023-01-05T06:28:38;95507.56;;;5.52;100.00
6134;BME280;3098;42.678;23.364;2023-01-05T06:31:05;95497.56;;;5.64;100.00
6134;BME280;3098;42.678;23.364;2023-01-05T06:33:34;95499.97;;;5.81;100.00
6134;BME280;3098;42.678;23.364;2023-01-05T06:36:01;95495.75;;;6.05;100.00
6134;BME280;3098;42.678;23.364;2023-01-05T06:38:29;95318.88;;;5.68;100.00
6134;BME280;3098;42.678;23.364;2023-01-05T06:40:56;95351.66;;;6.80;100.00
6134;BME280;3098;42.678;23.364;2023-01-05T06:43:27;95486.50;;;8.81;100.00
6134;BME280;3098;42.678;23.364;2023-01-05T06:45:54;95477.06;;;9.73;100.00
6134;BME280;3098;42.678;23.364;2023-01-05T06:48:21;95230.41;;;9.34;100.00
6134;BME280;3098;42.678;23.364;2023-01-05T06:50:51;95494.56;;;10.98;100.00
6134;BME280;3098;42.678;23.364;2023-01-05T06:53:20;95223.59;;;8.63;100.00
6134;BME280;3098;42.678;23.364;2023-01-05T06:55:50;95359.31;;;8.78;100.00
6134;BME280;3098;42.678;23.364;2023-01-05T06:58:18;95470.97;;;8.75;100.00
6134;BME280;3098;42.678;23.364;2023-01-05T07:00:48;95472.03;;;8.97;100.00
6134;BME280;3098;42.678;23.364;2023-01-05T07:03:17;95468.00;;;8.81;100.00
6134;BME280;3098;42.678;23.364;2023-01-05T07:05:49;95442.41;;;8.53;100.00
6134;BME280;3098;42.678;23.364;2023-01-05T07:08:17;95438.22;;;8.47;100.00
6134;BME280;3098;42.678;23.364;2023-01-05T07:10:45;95465.03;;;8.35;100.00
6134;BME280;3098;42.678;23.364;2023-01-05T07:13:14;95399.19;;;7.14;100.00
6134;BME280;3098;42.678;23.364;2023-01-05T07:15:42;95337.16;;;6.82;100.00
6134;BME280;3098;42.678;23.364;2023-01-05T07:18:11;95284.84;;;6.56;100.00
6134;BME280;3098;42.678;23.364;2023-01-05T07:20:39;95466.91;;;7.67;100.00
6134;BME280;3098;42.678;23.364;2023-01-05T07:23:07;95307.47;;;6.67;100.00
6134;BME280;3098;42.678;23.364;2023-01-05T07:25:37;95355.63;;;6.77;100.00
6134;BME280;3098;42.678;23.364;2023-01-05T07:28:06;95317.56;;;6.50;100.00
6134;BME280;3098;42.678;23.364;2023-01-05T07:30:34;95319.34;;;6.00;100.00
6134;BME280;3098;42.678;23.364;2023-01-05T07:33:02;95277.03;;;5.66;100.00
6134;BME280;3098;42.678;23.364;2023-01-05T07:35:32;95269.41;;;5.70;100.00
6134;BME280;3098;42.678;23.364;2023-01-05T07:37:59;95463.78;;;7.21;100.00
6134;BME280;3098;42.678;23.364;2023-01-05T07:40:28;95385.44;;;6.73;100.00
6134;BME280;3098;42.678;23.364;2023-01-05T07:42:57;95413.53;;;6.98;100.00
6134;BME280;3098;42.678;23.364;2023-01-05T07:45:25;95462.34;;;7.39;100.00
6134;BME280;3098;42.678;23.364;2023-01-05T07:47:52;95407.22;;;7.37;100.00
6134;BME280;3098;42.678;23.364;2023-01-05T07:50:22;95447.56;;;8.87;100.00
6134;BME280;3098;42.678;23.364;2023-01-05T07:52:51;95449.06;;;10.64;100.00
6134;BME280;3098;42.678;23.364;2023-01-05T07:55:18;95373.22;;;11.48;100.00
6134;BME280;3098;42.678;23.364;2023-01-05T07:57:46;95400.97;;;11.78;100.00
6134;BME280;3098;42.678;23.364;2023-01-05T08:00:18;95438.56;;;12.38;98.73
6134;BME280;3098;42.678;23.364;2023-01-05T08:02:47;95412.47;;;12.49;96.66
6134;BME280;3098;42.678;23.364;2023-01-05T08:05:17;95440.59;;;12.72;93.19
6134;BME280;3098;42.678;23.364;2023-01-05T08:07:47;95327.16;;;11.97;93.10
6134;BME280;3098;42.678;23.364;2023-01-05T08:10:16;95281.66;;;12.55;90.79
6134;BME280;3098;42.678;23.364;2023-01-05T08:13:01;95318.00;;;13.80;82.09
6134;BME280;3098;42.678;23.364;2023-01-05T08:15:45;95246.34;;;14.75;75.09
6134;BME280;3098;42.678;23.364;2023-01-05T08:18:12;95436.59;;;16.13;72.72
6134;BME280;3098;42.678;23.364;2023-01-05T08:20:42;95423.34;;;15.63;69.83
6134;BME280;3098;42.678;23.364;2023-01-05T08:23:10;95417.47;;;15.20;72.36
6134;BME280;3098;42.678;23.364;2023-01-05T08:25:39;95216.06;;;13.83;72.21
6134;BME280;3098;42.678;23.364;2023-01-05T08:28:07;95428.00;;;14.58;75.86
6134;BME280;3098;42.678;23.364;2023-01-05T08:30:35;95429.47;;;14.38;74.33
6134;BME280;3098;42.678;23.364;2023-01-05T08:33:09;95431.53;;;12.42;82.32
6134;BME280;3098;42.678;23.364;2023-01-05T08:35:45;95423.56;;;13.55;80.59
6134;BME280;3098;42.678;23.364;2023-01-05T08:38:29;95430.81;;;12.98;82.74
6134;BME280;3098;42.678;23.364;2023-01-05T08:40:59;95420.28;;;13.50;80.73
6134;BME280;3098;42.678;23.364;2023-01-05T08:43:27;95420.03;;;12.64;82.13
6134;BME280;3098;42.678;23.364;2023-01-05T08:45:54;95256.78;;;10.98;86.98
6134;BME280;3098;42.678;23.364;2023-01-05T08:48:22;95346.81;;;11.30;88.82
6134;BME280;3098;42.678;23.364;2023-01-05T08:50:49;95366.63;;;11.24;90.51
6134;BME280;3098;42.678;23.364;2023-01-05T08:53:16;95320.53;;;12.26;85.53
6134;BME280;3098;42.678;23.364;2023-01-05T08:55:45;95344.81;;;13.06;81.50
6134;BME280;3098;42.678;23.364;2023-01-05T08:58:14;95396.09;;;12.64;82.77
6134;BME280;3098;42.678;23.364;2023-01-05T09:00:42;95272.28;;;11.04;85.95
6134;BME280;3098;42.678;23.364;2023-01-05T09:03:10;95402.88;;;12.39;86.05
6134;BME280;3098;42.678;23.364;2023-01-05T09:05:39;95368.41;;;12.26;85.75
6134;BME280;3098;42.678;23.364;2023-01-05T09:08:08;95351.88;;;12.06;85.39
6134;BME280;3098;42.678;23.364;2023-01-05T09:10:37;95304.94;;;11.05;88.98
6134;BME280;3098;42.678;23.364;2023-01-05T09:13:05;95369.22;;;11.15;91.76
6134;BME280;3098;42.678;23.364;2023-01-05T09:15:36;95295.91;;;10.70;91.78
6134;BME280;3098;42.678;23.364;2023-01-05T09:18:03;95164.63;;;9.68;93.68
6134;BME280;3098;42.678;23.364;2023-01-05T09:20:31;95338.03;;;10.71;93.33
6134;BME280;3098;42.678;23.364;2023-01-05T09:22:59;95301.53;;;10.90;93.87
6134;BME280;3098;42.678;23.364;2023-01-05T09:25:27;95247.56;;;11.70;88.21
6134;BME280;3098;42.678;23.364;2023-01-05T09:27:55;95245.47;;;12.46;84.56
6134;BME280;3098;42.678;23.364;2023-01-05T09:30:22;95192.25;;;12.89;79.46
6134;BME280;3098;42.678;23.364;2023-01-05T09:32:51;95302.84;;;15.06;73.17
6134;BME280;3098;42.678;23.364;2023-01-05T09:35:19;95296.91;;;16.44;66.12
6134;BME280;3098;42.678;23.364;2023-01-05T09:37:48;95183.09;;;16.74;59.58
6134;BME280;3098;42.678;23.364;2023-01-05T09:40:17;94937.38;;;15.60;58.17
6134;BME280;3098;42.678;23.364;2023-01-05T09:42:47;95140.53;;;16.57;58.02
6134;BME280;3098;42.678;23.364;2023-01-05T09:45:22;95288.19;;;16.83;58.47
6134;BME280;3098;42.678;23.364;2023-01-05T09:47:52;95224.44;;;15.23;62.39
6134;BME280;3098;42.678;23.364;2023-01-05T09:50:23;95137.06;;;13.78;66.13
6134;BME280;3098;42.678;23.364;2023-01-05T09:52:54;95237.28;;;15.29;64.88
6134;BME280;3098;42.678;23.364;2023-01-05T09:55:24;95247.34;;;15.77;62.50
6134;BME280;3098;42.678;23.364;2023-01-05T09:57:55;95198.72;;;15.30;63.22
6134;BME280;3098;42.678;23.364;2023-01-05T10:00:26;95011.53;;;14.25;61.72
6134;BME280;3098;42.678;23.364;2023-01-05T10:03:01;95123.19;;;15.09;62.02
6134;BME280;3098;42.678;23.364;2023-01-05T10:05:32;95238.38;;;16.54;61.15
6134;BME280;3098;42.678;23.364;2023-01-05T10:08:07;95237.56;;;16.42;60.15
6134;BME280;3098;42.678;23.364;2023-01-05T10:10:44;95249.59;;;16.36;58.49
6134;BME280;3098;42.678;23.364;2023-01-05T10:13:34;94964.88;;;14.64;58.96
6134;BME280;3098;42.678;23.364;2023-01-05T10:16:04;95155.28;;;14.88;62.13
6134;BME280;3098;42.678;23.364;2023-01-05T10:18:33;95209.09;;;15.65;61.22
6134;BME280;3098;42.678;23.364;2023-01-05T10:21:08;95148.72;;;15.64;60.03
6134;BME280;3098;42.678;23.364;2023-01-05T10:23:48;95198.59;;;14.94;62.42
6134;BME280;3098;42.678;23.364;2023-01-05T10:26:23;95228.69;;;15.57;61.86
6134;BME280;3098;42.678;23.364;2023-01-05T10:28:58;95214.94;;;16.39;59.25
6134;BME280;3098;42.678;23.364;2023-01-05T10:31:43;95212.69;;;17.05;58.06
6134;BME280;3098;42.678;23.364;2023-01-05T10:34:21;95160.59;;;17.62;53.89
6134;BME280;3098;42.678;23.364;2023-01-05T10:37:04;95102.47;;;17.07;54.63
6134;BME280;3098;42.678;23.364;2023-01-05T10:39:58;95215.38;;;18.23;53.01
6134;BME280;3098;42.678;23.364;2023-01-05T10:42:38;95200.69;;;18.02;53.26
6134;BME280;3098;42.678;23.364;2023-01-05T10:45:10;95100.84;;;17.18;52.18
6134;BME280;3098;42.678;23.364;2023-01-05T10:47:40;95055.97;;;17.46;51.95
6134;BME280;3098;42.678;23.364;2023-01-05T10:50:34;95176.19;;;17.88;51.55
6134;BME280;3098;42.678;23.364;2023-01-05T10:53:12;95169.22;;;17.12;54.44
6134;BME280;3098;42.678;23.364;2023-01-05T10:55:52;95065.06;;;16.15;54.60
6134;BME280;3098;42.678;23.364;2023-01-05T10:58:24;95060.69;;;15.59;56.48
6134;BME280;3098;42.678;23.364;2023-01-05T11:00:55;95166.78;;;15.91;57.98
6134;BME280;3098;42.678;23.364;2023-01-05T11:03:32;95122.88;;;17.11;54.23
6134;BME280;3098;42.678;23.364;2023-01-05T11:06:02;95156.78;;;18.10;51.45
6134;BME280;3098;42.678;23.364;2023-01-05T11:08:31;95055.91;;;16.84;51.92
6134;BME280;3098;42.678;23.364;2023-01-05T11:11:01;95160.81;;;16.46;55.67
6134;BME280;3098;42.678;23.364;2023-01-05T11:13:33;95148.66;;;16.36;56.39
6134;BME280;3098;42.678;23.364;2023-01-05T11:16:07;95114.28;;;15.86;56.05
6134;BME280;3098;42.678;23.364;2023-01-05T11:18:45;95144.00;;;16.33;55.82
6134;BME280;3098;42.678;23.364;2023-01-05T11:21:17;95099.50;;;16.29;55.29
6134;BME280;3098;42.678;23.364;2023-01-05T11:23:47;94989.28;;;15.47;55.29
6134;BME280;3098;42.678;23.364;2023-01-05T11:26:29;95086.28;;;16.60;54.44
6134;BME280;3098;42.678;23.364;2023-01-05T11:29:13;95134.69;;;17.38;53.15
6134;BME280;3098;42.678;23.364;2023-01-05T11:31:44;95137.28;;;18.13;51.41
6134;BME280;3098;42.678;23.364;2023-01-05T11:34:38;95134.13;;;16.61;54.01
6134;BME280;3098;42.678;23.364;2023-01-05T11:37:22;95116.97;;;15.17;57.65
6134;BME280;3098;42.678;23.364;2023-01-05T11:39:51;95000.78;;;13.30;63.08
6134;BME280;3098;42.678;23.364;2023-01-05T11:42:28;94742.34;;;12.56;60.69
6134;BME280;3098;42.678;23.364;2023-01-05T11:44:57;95121.88;;;15.15;59.58
6134;BME280;3098;42.678;23.364;2023-01-05T11:47:29;94997.88;;;14.06;62.46
6134;BME280;3098;42.678;23.364;2023-01-05T11:50:04;94940.34;;;14.05;60.69
6134;BME280;3098;42.678;23.364;2023-01-05T11:52:46;94779.72;;;12.80;60.69
6134;BME280;3098;42.678;23.364;2023-01-05T11:55:31;94970.69;;;13.30;62.77
6134;BME280;3098;42.678;23.364;2023-01-05T11:58:22;94767.03;;;12.36;62.43
6134;BME280;3098;42.678;23.364;2023-01-05T12:01:23;95111.97;;;14.83;62.19
6134;BME280;3098;42.678;23.364;2023-01-05T12:07:11;95104.69;;;16.61;55.54
6134;BME280;3098;42.678;23.364;2023-01-05T12:09:45;95097.78;;;16.48;54.86
6134;BME280;3098;42.678;23.364;2023-01-05T12:12:30;95094.91;;;15.08;57.95
6134;BME280;3098;42.678;23.364;2023-01-05T12:15:18;95112.41;;;15.30;58.21
6134;BME280;3098;42.678;23.364;2023-01-05T12:17:58;95052.66;;;14.77;59.43
6134;BME280;3098;42.678;23.364;2023-01-05T12:20:40;95061.16;;;13.97;61.70
6134;BME280;3098;42.678;23.364;2023-01-05T12:23:33;94969.66;;;14.82;58.35
6134;BME280;3098;42.678;23.364;2023-01-05T12:26:17;94993.81;;;15.83;55.49
6134;BME280;3098;42.678;23.364;2023-01-05T12:31:47;94989.75;;;14.02;59.97
6134;BME280;3098;42.678;23.364;2023-01-05T12:37:33;94861.03;;;12.98;61.04
6134;BME280;3098;42.678;23.364;2023-01-05T12:40:26;95032.28;;;14.19;61.66
6134;BME280;3098;42.678;23.364;2023-01-05T12:43:00;94970.41;;;14.26;59.61
6134;BME280;3098;42.678;23.364;2023-01-05T12:45:55;95048.03;;;14.12;58.04
6134;BME280;3098;42.678;23.364;2023-01-05T12:48:30;95029.47;;;13.24;61.88
6134;BME280;3098;42.678;23.364;2023-01-05T12:51:05;95042.31;;;13.22;62.64
6134;BME280;3098;42.678;23.364;2023-01-05T12:53:49;94989.84;;;12.85;62.29
6134;BME280;3098;42.678;23.364;2023-01-05T12:56:27;95051.00;;;13.40;61.89
6134;BME280;3098;42.678;23.364;2023-01-05T12:59:11;95044.41;;;13.08;62.24
6134;BME280;3098;42.678;23.364;2023-01-05T13:01:53;95057.22;;;13.06;63.92
6134;BME280;3098;42.678;23.364;2023-01-05T13:04:34;94980.56;;;12.45;65.91
6134;BME280;3098;42.678;23.364;2023-01-05T13:07:08;95062.00;;;12.84;67.37
6134;BME280;3098;42.678;23.364;2023-01-05T13:09:39;95026.00;;;12.78;67.86
6134;BME280;3098;42.678;23.364;2023-01-05T13:12:10;94900.91;;;11.93;68.60
6134;BME280;3098;42.678;23.364;2023-01-05T13:14:58;95017.63;;;12.41;70.25
6134;BME280;3098;42.678;23.364;2023-01-05T13:17:31;95055.50;;;12.47;71.58
6134;BME280;3098;42.678;23.364;2023-01-05T13:20:04;94942.94;;;11.57;72.63
6134;BME280;3098;42.678;23.364;2023-01-05T13:22:41;95054.72;;;12.21;73.38
6134;BME280;3098;42.678;23.364;2023-01-05T13:25:16;94997.31;;;11.68;74.61
6134;BME280;3098;42.678;23.364;2023-01-05T13:27:46;94746.25;;;9.86;75.16
6134;BME280;3098;42.678;23.364;2023-01-05T13:30:21;94973.38;;;11.34;75.94
6134;BME280;3098;42.678;23.364;2023-01-05T13:33:00;95045.34;;;11.80;76.41
6134;BME280;3098;42.678;23.364;2023-01-05T13:35:44;95045.19;;;11.77;76.77
6134;BME280;3098;42.678;23.364;2023-01-05T13:38:45;95007.13;;;11.42;77.23
6134;BME280;3098;42.678;23.364;2023-01-05T13:44:32;94978.69;;;11.34;77.07
6134;BME280;3098;42.678;23.364;2023-01-05T13:47:27;95028.72;;;11.58;77.48
6134;BME280;3098;42.678;23.364;2023-01-05T13:50:24;95010.16;;;11.66;77.22
6134;BME280;3098;42.678;23.364;2023-01-05T13:53:08;94773.63;;;10.12;76.89
6134;BME280;3098;42.678;23.364;2023-01-05T13:55:43;94813.16;;;10.39;76.74